Latest Weather Observations for Toowoomba

IDQ60901

Issued at 5:11 pm EST Tuesday 26 May 2020 (issued every 10 minutes, with the page automatically refreshed every 10 minutes)

About weather observations | Map of Brisbane area stations | Latest observations for Brisbane area | Other Formats
Station Details ID: 041529 Name: TOOWOOMBA AIRPORT Lat: -27.54 Lon: 151.91 Height: 640.9 m
Data from the previous 72 hours. | See also: Recent months at Toowoomba
Date/Time
EST
Temp
°C
App
Temp
°C
Dew
Point
°C
Rel
Hum
%
Delta-T
°C
Wind Press
QNH
hPa
Press
MSL
hPa
Rain since
9am
mm
Dir  Spd
km/h
Gust
km/h
Spd
kts
Gust
kts
26/05:00pm 16.3 14.6 1.6 37 6.7 CALM 0 0 0 0 1019.5 1018.1 0.0
26/04:30pm 17.7 15.5 1.2 33 7.6 SW 2 7 1 4 1019.2 1017.7 0.0
26/04:00pm 17.6 13.8 1.6 34 7.4 SW 11 15 6 8 1018.9 1017.4 0.0
26/03:30pm 17.9 14.2 2.2 35 7.4 WNW 11 15 6 8 1018.9 1017.4 0.0
26/03:00pm 19.1 16.4 2.9 34 7.8 SW 6 11 3 6 1018.8 1017.3 0.0
26/02:30pm 18.2 15.2 4.0 39 6.9 WSW 9 13 5 7 1019.0 1017.5 0.0
26/02:00pm 17.8 14.7 3.7 39 6.8 SW 9 13 5 7 1018.9 1017.4 0.0
26/01:30pm 17.7 14.8 2.8 37 7.1 WSW 7 11 4 6 1019.0 1017.5 0.0
26/01:00pm 17.3 14.6 2.5 37 7.0 SSE 6 13 3 7 1019.2 1017.7 0.0
26/12:30pm 16.5 13.1 3.9 43 6.1 SW 11 20 6 11 1019.2 1017.7 0.0
26/12:00pm 16.1 12.6 5.4 49 5.3 SSW 13 20 7 11 1019.6 1018.2 0.0
26/11:30am 15.3 11.3 4.7 49 5.1 SW 15 24 8 13 1020.1 1018.7 0.0
26/11:00am 14.4 10.7 7.9 65 3.3 SW 17 22 9 12 1020.7 1019.2 0.0
26/10:30am 13.7 10.7 9.2 74 2.4 SW 15 20 8 11 1021.1 1019.7 0.0
26/10:00am 12.6 8.6 8.3 75 2.2 WSW 19 24 10 13 1021.3 1019.9 0.0
26/09:30am 11.3 7.7 8.2 81 1.6 WSW 17 22 9 12 1021.5 1020.1 0.0
26/09:00am 10.4 6.3 8.0 85 1.2 SW 19 22 10 12 1021.4 1020.0 0.0
26/08:30am 9.5 6.1 7.6 88 0.9 W 15 19 8 10 1021.1 1019.7 0.0
26/08:00am 8.8 5.4 7.7 93 0.5 SW 15 20 8 11 1021.1 1019.7 0.0
26/07:30am 7.5 4.4 7.2 98 0.1 WSW 13 17 7 9 1020.8 1019.4 0.0
26/07:00am 5.6 2.9 5.5 99 0.0 WSW 9 11 5 6 1020.6 1019.1 0.0
26/06:30am 5.4 2.2 5.0 97 0.2 W 11 13 6 7 1020.1 1018.7 0.0
26/06:00am 5.4 2.5 4.4 93 0.4 WSW 9 9 5 5 1019.9 1018.5 0.0
26/05:30am 6.1 3.3 5.2 94 0.4 W 9 9 5 5 1019.6 1018.2 0.0
26/05:00am 5.9 2.6 4.4 90 0.7 WSW 11 15 6 8 1019.3 1017.8 0.0
26/04:30am 6.7 3.0 4.5 86 1.0 W 13 15 7 8 1019.2 1017.7 0.0
26/04:00am 7.9 3.5 4.8 81 1.4 WSW 17 22 9 12 1019.0 1017.5 0.0
26/03:30am 8.0 3.6 4.8 80 1.5 WSW 17 20 9 11 1019.1 1017.6 0.0
26/03:00am 7.8 3.4 4.7 81 1.4 WSW 17 19 9 10 1019.1 1017.6 0.0
26/02:30am 8.0 4.0 4.8 80 1.5 WSW 15 17 8 9 1019.1 1017.6 0.0
26/02:00am 8.3 4.3 4.9 79 1.6 WSW 15 19 8 10 1019.3 1017.8 0.0
26/01:30am 8.2 4.5 4.4 77 1.7 SW 13 19 7 10 1019.4 1017.9 0.0
26/01:00am 8.7 4.6 4.5 75 1.9 SW 15 20 8 11 1019.4 1017.9 0.0
26/12:30am 9.2 4.2 4.4 72 2.2 SW 20 26 11 14 1019.3 1017.8 0.0
26/12:00am 9.4 4.4 4.4 71 2.3 WSW 20 24 11 13 1019.3 1017.8 0.0
 
Date/Time
EST
Temp
°C
App
Temp
°C
Dew
Point
°C
Rel
Hum
%
Delta-T
°C
Wind Press
QNH
hPa
Press
MSL
hPa
Rain since
9am
mm
Dir  Spd
km/h
Gust
km/h
Spd
kts
Gust
kts
25/11:30pm 9.9 4.9 4.5 69 2.5 SW 20 26 11 14 1019.4 1017.9 0.0
25/11:00pm 10.3 5.5 4.9 69 2.5 SW 19 24 10 13 1019.4 1017.9 0.0
25/10:30pm 10.3 6.3 5.1 70 2.4 WSW 15 19 8 10 1019.5 1018.1 0.0
25/10:00pm 10.7 6.7 5.0 68 2.7 SW 15 20 8 11 1019.3 1017.8 0.0
25/09:30pm 11.6 7.2 5.0 64 3.1 WSW 17 22 9 12 1019.4 1017.9 0.0
25/09:00pm 11.7 8.2 5.3 65 3.1 W 13 19 7 10 1019.4 1017.9 0.0
25/08:30pm 12.1 8.6 5.5 64 3.2 WSW 13 20 7 11 1019.3 1017.8 0.0
25/08:00pm 11.9 8.4 5.5 65 3.1 WSW 13 17 7 9 1019.2 1017.7 0.0
25/07:30pm 12.4 8.5 5.3 62 3.4 WSW 15 19 8 10 1019.0 1017.5 0.0
25/07:00pm 13.1 9.2 5.3 59 3.8 SW 15 20 8 11 1018.8 1017.3 0.0
25/06:30pm 13.0 9.0 4.9 58 3.9 SW 15 19 8 10 1018.3 1016.9 0.0
25/06:00pm 13.2 9.5 4.6 56 4.1 WSW 13 17 7 9 1018.2 1016.8 0.0
25/05:30pm 13.5 9.8 4.6 55 4.3 WSW 13 19 7 10 1017.8 1016.3 0.0
25/05:00pm 14.6 10.9 4.6 51 4.8 WSW 13 19 7 10 1017.4 1015.9 0.0
25/04:30pm 16.2 11.4 4.9 47 5.5 WSW 19 24 10 13 1017.1 1015.6 0.0
25/04:00pm 17.2 12.8 4.9 44 6.1 WSW 17 22 9 12 1016.7 1015.3 0.0
25/03:30pm 16.9 12.5 4.6 44 6.0 WSW 17 26 9 14 1016.4 1014.9 0.0
25/03:00pm 17.3 12.8 4.3 42 6.3 WSW 17 24 9 13 1016.4 1014.9 0.0
25/02:30pm 17.7 13.7 5.0 43 6.3 WSW 15 24 8 13 1016.5 1015.0 0.0
25/02:00pm 17.4 13.0 5.0 44 6.1 WSW 17 26 9 14 1016.3 1014.8 0.0
25/01:30pm 17.6 13.4 5.5 45 6.1 SW 17 24 9 13 1016.1 1014.6 0.0
25/01:00pm 17.5 13.2 5.4 45 6.0 WSW 17 26 9 14 1016.4 1014.9 0.0
25/12:30pm 16.9 12.9 6.7 51 5.2 SW 17 26 9 14 1016.5 1015.0 0.0
25/12:00pm 16.4 12.5 7.1 54 4.8 WSW 17 30 9 16 1016.9 1015.4 0.0
25/11:30am 16.0 12.1 7.0 55 4.6 SW 17 22 9 12 1017.5 1016.0 0.0
25/11:00am 15.2 10.9 8.0 62 3.7 SW 20 26 11 14 1017.8 1016.3 0.0
25/10:30am 13.8 9.8 8.2 69 2.9 SW 19 24 10 13 1018.1 1016.7 0.0
25/10:00am 13.0 9.4 8.3 73 2.4 SW 17 22 9 12 1018.7 1017.2 0.0
25/09:30am 11.7 7.5 8.4 80 1.7 SW 20 24 11 13 1018.6 1017.1 0.0
25/09:00am 10.8 6.8 8.4 85 1.2 SW 19 22 10 12 1018.4 1017.0 0.0
25/08:30am 10.1 6.5 8.4 89 0.9 WSW 17 24 9 13 1018.3 1016.9 0.0
25/08:00am 9.6 6.4 8.4 92 0.6 WSW 15 19 8 10 1018.1 1016.7 0.0
25/07:30am 8.8 6.0 8.5 98 0.2 SW 13 19 7 10 1017.9 1016.4 0.0
25/07:00am 6.5 4.0 6.4 99 0.0 W 9 11 5 6 1017.7 1016.2 0.0
25/06:30am 6.0 3.4 5.9 99 0.0 W 9 13 5 7 1017.4 1015.9 0.0
25/06:00am 6.1 3.5 6.0 99 0.0 W 9 9 5 5 1017.2 1015.7 0.0
25/05:30am 6.6 3.7 6.5 99 0.0 W 11 13 6 7 1016.4 1014.9 0.0
25/05:00am 6.8 3.6 6.7 99 0.0 W 13 15 7 8 1016.2 1014.7 0.0
25/04:30am 7.2 4.8 6.9 98 0.1 W 9 11 5 6 1016.1 1014.6 0.0
25/04:00am 7.2 4.4 7.1 99 0.0 WNW 11 13 6 7 1016.1 1014.6 0.0
25/03:30am 7.4 5.0 7.0 97 0.2 W 9 13 5 7 1016.0 1014.5 0.0
25/03:00am 7.4 4.6 6.8 96 0.3 WNW 11 13 6 7 1015.9 1014.4 0.0
25/02:30am 8.1 4.9 6.7 91 0.7 WNW 13 17 7 9 1015.8 1014.3 0.0
25/02:00am 9.1 5.8 6.5 84 1.3 W 13 19 7 10 1015.6 1014.1 0.0
25/01:30am 9.6 5.2 6.7 82 1.4 WSW 19 24 10 13 1015.5 1014.0 0.0
25/01:00am 9.9 6.4 7.0 82 1.4 W 15 20 8 11 1015.6 1014.1 0.0
25/12:30am 10.0 6.4 6.7 80 1.6 WSW 15 20 8 11 1015.3 1013.7 0.0
25/12:00am 10.0 5.4 6.7 80 1.6 WSW 20 26 11 14 1015.6 1014.1 0.0
 
Date/Time
EST
Temp
°C
App
Temp
°C
Dew
Point
°C
Rel
Hum
%
Delta-T
°C
Wind Press
QNH
hPa
Press
MSL
hPa
Rain since
9am
mm
Dir  Spd
km/h
Gust
km/h
Spd
kts
Gust
kts
24/11:30pm 10.1 6.1 6.6 79 1.7 WSW 17 24 9 13 1015.6 1014.1 0.0
24/11:00pm 10.0 5.4 6.5 79 1.7 WSW 20 26 11 14 1015.8 1014.3 0.0
24/10:30pm 10.0 5.3 6.2 77 1.8 WSW 20 24 11 13 1016.0 1014.5 0.0
24/10:00pm 10.0 5.3 6.2 77 1.8 WSW 20 26 11 14 1016.1 1014.6 0.0
24/09:30pm 10.1 6.0 6.3 77 1.8 WSW 17 22 9 12 1016.1 1014.6 0.0
24/09:00pm 10.2 5.5 6.2 76 1.9 WSW 20 28 11 15 1016.3 1014.8 0.0
24/08:30pm 10.2 4.7 6.0 75 2.0 WSW 24 35 13 19 1016.1 1014.6 0.0
24/08:00pm 10.0 4.9 6.0 76 1.9 WSW 22 33 12 18 1015.6 1014.1 0.0
24/07:30pm 9.9 5.1 5.7 75 2.0 WSW 20 32 11 17 1015.6 1014.1 0.0
24/07:00pm 9.9 4.7 5.5 74 2.1 WSW 22 30 12 16 1015.1 1013.6 0.0
24/06:30pm 9.9 5.3 5.5 74 2.1 WSW 19 26 10 14 1015.1 1013.6 0.0
24/06:00pm 9.8 3.4 5.2 73 2.2 WSW 28 39 15 21 1014.6 1013.1 0.0
24/05:30pm 10.0 4.7 5.2 72 2.3 WSW 22 32 12 17 1014.1 1012.6 0.0
24/05:00pm 10.2 4.9 5.0 70 2.4 WSW 22 32 12 17 1013.8 1012.2 0.0
24/04:30pm 10.7 4.3 5.0 68 2.7 WSW 28 35 15 19 1013.4 1011.9 0.0
24/04:00pm 10.9 3.7 5.0 67 2.8 WSW 32 41 17 22 1012.9 1011.4 0.0
24/03:30pm 11.3 4.9 5.0 65 3.0 WSW 28 39 15 21 1012.5 1010.9 0.0
24/03:00pm 11.4 5.0 5.1 65 3.0 WSW 28 37 15 20 1012.8 1011.3 0.0
24/02:30pm 11.3 5.3 5.2 66 2.9 WSW 26 35 14 19 1012.8 1011.3 0.0
24/02:00pm 11.3 4.6 5.4 67 2.8 WSW 30 39 16 21 1012.7 1011.2 0.0
24/01:30pm 11.1 4.7 5.4 68 2.7 WSW 28 39 15 21 1012.8 1011.3 0.0
24/01:00pm 10.7 4.3 5.3 69 2.6 WSW 28 37 15 20 1013.0 1011.5 0.0
24/12:30pm 10.6 3.4 5.2 69 2.6 WSW 32 43 17 23 1013.1 1011.6 0.0
24/12:00pm 10.7 3.6 5.3 69 2.6 WSW 32 41 17 22 1013.3 1011.8 0.0
24/11:30am 10.4 4.0 5.2 70 2.5 W 28 39 15 21 1013.7 1012.1 0.0
24/11:00am 10.5 4.0 4.9 68 2.6 WSW 28 37 15 20 1013.9 1012.3 0.0
24/10:30am 10.2 3.3 4.8 69 2.5 WSW 30 41 16 22 1013.8 1012.2 0.0
24/10:00am 9.7 2.7 4.1 68 2.6 WSW 30 43 16 23 1013.8 1012.2 0.0
24/09:30am 9.2 3.0 4.4 72 2.2 WSW 26 32 14 17 1013.7 1012.1 0.0
24/09:00am 7.9 2.0 3.9 76 1.8 WSW 24 33 13 18 1013.7 1012.1 0.0
24/08:30am 7.2 1.7 4.2 81 1.3 WSW 22 30 12 16 1013.7 1012.1 0.0
24/08:00am 6.8 0.1 3.6 80 1.4 WSW 28 33 15 18 1013.3 1011.8 0.0
24/07:30am 6.3 0.3 3.6 83 1.2 WSW 24 33 13 18 1013.4 1011.9 0.0
24/07:00am 5.9 0.7 3.6 85 1.0 WSW 20 28 11 15 1013.2 1011.7 0.0
24/06:30am 5.8 0.6 3.5 85 1.0 WSW 20 26 11 14 1013.0 1011.5 0.0
24/06:00am 5.7 0.5 3.5 86 1.0 WSW 20 28 11 15 1012.6 1011.0 0.0
24/05:30am 5.2 0.7 4.0 92 0.5 WSW 17 24 9 13 1012.6 1011.0 0.0
24/05:00am 3.8 0.0 3.7 99 0.0 WNW 13 17 7 9 1012.5 1010.9 0.0
24/04:30am 3.7 -0.2 3.6 99 0.0 WNW 13 17 7 9 1012.3 1010.7 0.0
24/04:00am 3.5 -0.4 3.4 99 0.0 WNW 13 20 7 11 1012.1 1010.5 0.0
24/03:30am 3.3 -1.4 3.2 99 0.0 WNW 17 22 9 12 1012.2 1010.6 0.0
24/03:00am 3.1 -2.2 3.0 99 0.0 WNW 20 28 11 15 1012.2 1010.6 0.0
24/02:30am 3.0 -2.1 2.9 99 0.0 WNW 19 26 10 14 1012.4 1010.8 0.0
24/02:00am 3.4 -1.4 2.5 94 0.4 WNW 17 22 9 12 1012.3 1010.7 0.0
24/01:30am 4.9 -1.6 2.9 87 0.9 W 26 33 14 18 1012.5 1010.9 0.0
24/01:00am 3.6 -1.5 2.9 95 0.3 W 19 24 10 13 1013.0 1011.5 0.0
24/12:30am 4.1 -1.0 2.8 91 0.5 W 19 24 10 13 1013.2 1011.7 0.0
24/12:00am 5.1 -0.6 2.8 85 1.0 W 22 30 12 16 1013.3 1011.8 0.0
 
Date/Time
EST
Temp
°C
App
Temp
°C
Dew
Point
°C
Rel
Hum
%
Delta-T
°C
Wind Press
QNH
hPa
Press
MSL
hPa
Rain since
9am
mm
Dir  Spd
km/h
Gust
km/h
Spd
kts
Gust
kts
23/11:30pm 5.3 -0.4 2.7 83 1.1 W 22 28 12 15 1013.4 1011.9 0.0
23/11:00pm 5.7 -0.4 2.7 81 1.3 W 24 33 13 18 1013.6 1012.0 0.0
23/10:30pm 5.8 -1.1 2.6 80 1.4 WSW 28 35 15 19 1013.3 1011.8 0.0
23/10:00pm 5.8 -0.7 2.6 80 1.4 WSW 26 33 14 18 1013.6 1012.0 0.0
23/09:30pm 5.5 -1.0 2.8 83 1.2 WSW 26 35 14 19 1013.6 1012.0 0.0
23/09:00pm 5.3 -1.9 2.8 84 1.1 WSW 30 35 16 19 1013.4 1011.9 0.0
23/08:30pm 5.3 -1.6 2.8 84 1.1 WSW 28 35 15 19 1013.0 1011.5 0.0
23/08:00pm 5.8 -0.7 2.8 81 1.3 WSW 26 35 14 19 1012.9 1011.4 0.0
23/07:30pm 6.0 -0.1 2.8 80 1.4 WSW 24 33 13 18 1012.8 1011.3 0.0
23/07:00pm 6.2 -0.3 2.7 78 1.5 WSW 26 37 14 20 1012.4 1010.8 0.0
23/06:30pm 6.7 1.0 2.8 76 1.7 WSW 22 32 12 17 1012.2 1010.6 0.0
23/06:00pm 7.3 0.4 2.6 72 2.0 WSW 28 35 15 19 1011.8 1010.3 0.0
23/05:30pm 7.7 0.8 2.6 70 2.2 WSW 28 39 15 21 1011.7 1010.2 0.0

Latest Capital City Observations: Canberra | Sydney | Melbourne | Brisbane | Adelaide | Perth | Hobart | Darwin

Other formats

Comma delimited format used in spreadsheet applications
http://www.bom.gov.au/fwo/IDQ60901/IDQ60901.95551.axf

JavaScript Object Notation format (JSON) in row-major order
http://www.bom.gov.au/fwo/IDQ60901/IDQ60901.95551.json

Data quality

Most of these data are generated automatically and are frequently updated. Quality checks on data are not normally performed. It is possible for incorrect values to appear. Refer to information at About Latest Weather Observations and please check the disclaimer before using these data.